Time;durP1;ratioP1;P1;durP2;ratioP2;P2;SDS_P1;SDS_P2;PMS_P1;PMS_P2;Temp;Humidity;BMP_temperature;BMP_pressure;BME280_temperature;BME280_humidity;BME280_pressure;Samples;Min_cycle;Max_cycle;Signal;HPM_P1;HPM_P2
2024/03/10 00:01:26;;;;;;;4.93;3.10;;;7.00;62.00;;;;;;5047381;28;21144;-60
2024/03/10 00:03:53;;;;;;;5.53;2.97;;;7.00;61.90;;;;;;5043862;28;20453;-60
2024/03/10 00:06:18;;;;;;;9.70;3.30;;;7.00;61.90;;;;;;5040557;28;20434;-60
2024/03/10 00:08:44;;;;;;;6.10;3.23;;;7.00;61.70;;;;;;5045745;28;20515;-60
2024/03/10 00:11:10;;;;;;;4.40;3.27;;;7.00;61.70;;;;;;5045128;28;20605;-60
2024/03/10 00:13:36;;;;;;;4.90;2.80;;;7.00;61.80;;;;;;5029268;28;20493;-59
2024/03/10 00:16:02;;;;;;;4.70;2.83;;;6.90;61.80;;;;;;5042162;28;20191;-60
2024/03/10 00:18:28;;;;;;;5.47;3.20;;;6.90;62.50;;;;;;5041647;28;20438;-60
2024/03/10 00:20:56;;;;;;;6.27;2.60;;;6.90;62.60;;;;;;5043159;28;20440;-60
2024/03/10 00:23:24;;;;;;;3.20;2.70;;;6.90;62.10;;;;;;5045505;28;20254;-59
2024/03/10 00:25:49;;;;;;;6.73;3.20;;;6.90;62.00;;;;;;5045761;28;20430;-60
2024/03/10 00:28:15;;;;;;;3.53;3.20;;;6.90;62.10;;;;;;5044400;28;20461;-61
2024/03/10 00:30:41;;;;;;;5.03;3.00;;;6.90;62.10;;;;;;5040572;28;20326;-60
2024/03/10 00:33:06;;;;;;;5.50;2.83;;;6.90;62.00;;;;;;5047489;28;20175;-60
2024/03/10 00:35:33;;;;;;;4.70;3.03;;;6.90;62.00;;;;;;5046664;28;20260;-59
2024/03/10 00:37:59;;;;;;;5.10;3.13;;;6.90;62.10;;;;;;5037764;28;20206;-59
2024/03/10 00:40:25;;;;;;;7.13;3.17;;;6.80;62.20;;;;;;5045725;28;20410;-60
2024/03/10 00:42:50;;;;;;;4.80;2.93;;;6.80;62.40;;;;;;5048511;28;20552;-60
2024/03/10 00:45:17;;;;;;;4.57;3.37;;;6.80;62.70;;;;;;5047274;28;20249;-60
2024/03/10 00:47:43;;;;;;;4.10;2.53;;;6.80;62.90;;;;;;5048076;28;20175;-61
2024/03/10 00:50:09;;;;;;;5.33;3.47;;;6.80;62.90;;;;;;5043518;28;21033;-61
2024/03/10 00:52:35;;;;;;;3.50;2.80;;;6.80;63.00;;;;;;5048375;28;20429;-60
2024/03/10 00:55:01;;;;;;;8.10;4.07;;;6.70;63.10;;;;;;5046418;28;20655;-60
2024/03/10 00:57:27;;;;;;;5.67;3.20;;;6.70;63.40;;;;;;5047777;28;20920;-59
2024/03/10 00:59:52;;;;;;;4.60;3.17;;;6.70;63.60;;;;;;5045606;28;20459;-60
2024/03/10 01:02:18;;;;;;;7.20;3.30;;;6.70;63.80;;;;;;5040906;28;20183;-60
2024/03/10 01:04:44;;;;;;;7.90;2.83;;;6.70;63.80;;;;;;5047401;28;20665;-61
2024/03/10 01:07:09;;;;;;;3.67;3.10;;;6.70;64.00;;;;;;5043489;28;20225;-60
2024/03/10 01:09:35;;;;;;;5.20;2.93;;;6.70;64.00;;;;;;5048229;28;20286;-60
2024/03/10 01:12:01;;;;;;;5.00;2.80;;;6.70;64.10;;;;;;5045414;28;20183;-61
2024/03/10 01:14:26;;;;;;;5.80;3.00;;;6.70;64.00;;;;;;5043469;28;20186;-60
2024/03/10 01:16:52;;;;;;;5.87;2.93;;;6.70;64.10;;;;;;5043750;28;20202;-61
2024/03/10 01:19:17;;;;;;;5.17;3.00;;;6.70;64.40;;;;;;5042476;28;20213;-60
2024/03/10 01:21:46;;;;;;;3.87;2.70;;;6.70;64.40;;;;;;5046488;28;20184;-61
2024/03/10 01:24:12;;;;;;;6.33;3.00;;;6.70;64.20;;;;;;5049493;28;20222;-60
2024/03/10 01:26:39;;;;;;;5.80;3.10;;;6.70;64.10;;;;;;5045721;28;20520;-60
2024/03/10 01:29:04;;;;;;;3.53;2.73;;;6.60;64.00;;;;;;5041166;28;20549;-60
2024/03/10 01:31:30;;;;;;;9.53;3.47;;;6.60;64.10;;;;;;5044633;28;22384;-61
2024/03/10 01:33:56;;;;;;;7.40;3.53;;;6.60;64.20;;;;;;5044779;28;20183;-60
2024/03/10 01:36:21;;;;;;;4.50;3.23;;;6.60;64.40;;;;;;5041540;28;20429;-59
2024/03/10 01:38:47;;;;;;;3.40;3.10;;;6.50;64.40;;;;;;5046411;28;20203;-60
2024/03/10 01:41:13;;;;;;;4.73;3.30;;;6.50;64.50;;;;;;5045507;28;20180;-60
2024/03/10 01:43:43;;;;;;;10.30;3.13;;;6.50;64.60;;;;;;5044316;28;20285;-60
2024/03/10 01:46:10;;;;;;;5.33;2.70;;;6.50;64.60;;;;;;5044193;28;20182;-61
2024/03/10 01:48:37;;;;;;;4.10;3.40;;;6.50;64.90;;;;;;5044313;28;20433;-60
2024/03/10 01:51:07;;;;;;;4.27;3.20;;;6.40;64.80;;;;;;5046974;28;20425;-60
2024/03/10 01:53:34;;;;;;;9.00;3.77;;;6.40;65.00;;;;;;5041558;28;20429;-59
2024/03/10 01:56:03;;;;;;;4.33;3.33;;;6.40;64.90;;;;;;5042757;28;20453;-59
2024/03/10 01:58:31;;;;;;;6.03;3.77;;;6.40;65.00;;;;;;5038730;28;20465;-60
2024/03/10 02:00:59;;;;;;;8.10;3.17;;;6.40;65.10;;;;;;5026932;28;20936;-60
2024/03/10 02:03:25;;;;;;;10.20;3.47;;;6.40;65.10;;;;;;5026204;28;20472;-60
2024/03/10 02:05:52;;;;;;;7.00;2.90;;;6.30;65.20;;;;;;5045654;28;20788;-59
2024/03/10 02:08:17;;;;;;;3.47;2.93;;;6.30;65.40;;;;;;5043463;28;20430;-60
2024/03/10 02:10:48;;;;;;;4.70;3.50;;;6.30;65.50;;;;;;5041822;28;20426;-60
2024/03/10 02:13:18;;;;;;;4.33;3.17;;;6.30;65.60;;;;;;5046269;28;20207;-61
2024/03/10 02:15:44;;;;;;;2.67;2.47;;;6.30;65.60;;;;;;5041660;28;20429;-60
2024/03/10 02:18:12;;;;;;;5.03;2.67;;;6.30;65.50;;;;;;5045026;28;20938;-60
2024/03/10 02:20:38;;;;;;;3.03;2.73;;;6.20;65.30;;;;;;5037346;28;20433;-60
2024/03/10 02:23:07;;;;;;;3.63;2.70;;;6.20;65.30;;;;;;5047422;28;21159;-61
2024/03/10 02:25:41;;;;;;;4.43;2.93;;;6.20;65.50;;;;;;5040824;28;20477;-61
2024/03/10 02:28:20;;;;;;;4.57;3.00;;;6.20;65.50;;;;;;5037812;28;20925;-60
2024/03/10 02:30:56;;;;;;;3.73;2.63;;;6.20;65.60;;;;;;5024328;28;20501;-60
2024/03/10 02:47:13;;;;;;;5.40;3.27;;;6.10;65.70;;;;;;5038248;28;20950;-59
2024/03/10 02:49:42;;;;;;;6.53;3.17;;;6.10;66.00;;;;;;5045176;28;20532;-59
2024/03/10 02:52:12;;;;;;;4.23;2.77;;;6.10;66.10;;;;;;5020121;28;20517;-61
2024/03/10 02:54:39;;;;;;;4.37;2.53;;;6.10;66.40;;;;;;5044461;28;20436;-59
2024/03/10 02:57:06;;;;;;;4.00;3.00;;;6.00;66.50;;;;;;5035135;28;20928;-61
2024/03/10 02:59:32;;;;;;;4.30;3.10;;;6.00;66.70;;;;;;5046031;28;20521;-60
2024/03/10 03:01:57;;;;;;;5.20;2.97;;;5.90;67.00;;;;;;5037694;28;20525;-61
2024/03/10 03:04:28;;;;;;;8.30;2.87;;;5.80;67.20;;;;;;5041687;28;20199;-60
2024/03/10 03:06:53;;;;;;;6.37;2.80;;;5.80;67.50;;;;;;5039614;28;20171;-60
2024/03/10 03:09:23;;;;;;;3.63;2.30;;;5.80;67.60;;;;;;5043831;28;21021;-60
2024/03/10 03:11:49;;;;;;;6.73;3.00;;;5.70;67.50;;;;;;5023899;28;20975;-60
2024/03/10 03:14:15;;;;;;;5.43;2.87;;;5.70;67.50;;;;;;5045029;28;20428;-60
2024/03/10 03:16:44;;;;;;;4.20;2.77;;;5.70;67.50;;;;;;5042500;28;20912;-60
2024/03/10 03:19:13;;;;;;;2.97;2.50;;;5.70;67.60;;;;;;5045344;28;20449;-60
2024/03/10 03:21:42;;;;;;;5.13;2.60;;;5.70;67.70;;;;;;5044969;28;20414;-60
2024/03/10 03:24:09;;;;;;;3.33;2.40;;;5.70;67.70;;;;;;5042980;28;20464;-60
2024/03/10 03:26:36;;;;;;;4.03;2.27;;;5.70;67.70;;;;;;5041661;28;20510;-60
2024/03/10 03:29:04;;;;;;;4.93;2.40;;;5.70;67.80;;;;;;5040305;28;20465;-60
2024/03/10 03:31:30;;;;;;;3.00;2.40;;;5.60;67.50;;;;;;5044556;28;20415;-61
2024/03/10 03:33:56;;;;;;;3.10;2.23;;;5.60;67.20;;;;;;5043267;28;20468;-59
2024/03/10 03:36:21;;;;;;;3.13;2.50;;;5.60;66.80;;;;;;5040528;28;20453;-59
2024/03/10 03:38:47;;;;;;;4.20;2.00;;;5.60;66.40;;;;;;5037263;28;20225;-60
2024/03/10 03:41:13;;;;;;;3.40;2.17;;;5.70;66.40;;;;;;5043278;28;20183;-60
2024/03/10 03:43:38;;;;;;;4.77;2.63;;;5.60;66.20;;;;;;5043423;28;20203;-61
2024/03/10 03:46:04;;;;;;;3.50;2.10;;;5.60;66.20;;;;;;5047759;28;20171;-59
2024/03/10 03:48:31;;;;;;;2.67;2.20;;;5.60;66.40;;;;;;5047272;28;20278;-60
2024/03/10 03:50:57;;;;;;;6.87;2.40;;;5.60;66.50;;;;;;5046067;28;21270;-61
2024/03/10 03:53:22;;;;;;;3.90;2.50;;;5.50;66.60;;;;;;5047006;28;20422;-60
2024/03/10 03:55:48;;;;;;;4.07;2.30;;;5.60;66.70;;;;;;5046562;28;20236;-60
2024/03/10 03:58:13;;;;;;;3.07;2.10;;;5.50;66.80;;;;;;5043895;28;20682;-60
2024/03/10 04:00:39;;;;;;;5.60;2.33;;;5.50;67.00;;;;;;5045149;28;20194;-60
2024/03/10 04:03:05;;;;;;;5.03;2.30;;;5.40;67.00;;;;;;5044281;28;20573;-62
2024/03/10 04:05:31;;;;;;;2.23;1.80;;;5.40;67.20;;;;;;5046417;28;20179;-61
2024/03/10 04:07:57;;;;;;;4.23;2.10;;;5.40;67.30;;;;;;5039264;28;20957;-60
2024/03/10 04:10:22;;;;;;;2.40;2.20;;;5.40;67.40;;;;;;5043340;28;20314;-59
2024/03/10 04:12:48;;;;;;;4.00;1.90;;;5.40;67.50;;;;;;5020384;28;20190;-60
2024/03/10 04:15:14;;;;;;;2.40;1.70;;;5.30;67.40;;;;;;5041830;28;20564;-60
2024/03/10 04:17:40;;;;;;;2.23;2.03;;;5.40;67.40;;;;;;5046395;28;20175;-61
2024/03/10 04:20:12;;;;;;;3.20;2.30;;;5.40;67.30;;;;;;5044843;28;20262;-62
2024/03/10 04:22:39;;;;;;;4.70;2.30;;;5.40;67.20;;;;;;5042389;28;20429;-61
2024/03/10 04:25:07;;;;;;;3.77;2.50;;;5.40;66.80;;;;;;5047312;28;20486;-59
2024/03/10 04:27:35;;;;;;;3.67;2.27;;;5.40;66.80;;;;;;5043292;28;20422;-60
2024/03/10 04:30:01;;;;;;;4.53;2.70;;;5.40;66.70;;;;;;5044935;28;20413;-60
2024/03/10 04:32:27;;;;;;;5.97;3.00;;;5.40;66.30;;;;;;5044784;28;20437;-60
2024/03/10 04:34:52;;;;;;;6.43;2.70;;;5.40;66.40;;;;;;5024530;28;20507;-60
2024/03/10 04:37:18;;;;;;;4.77;2.70;;;5.40;66.40;;;;;;5044963;28;20186;-60
2024/03/10 04:39:43;;;;;;;6.67;3.00;;;5.40;66.20;;;;;;5046491;28;20207;-60
2024/03/10 04:42:10;;;;;;;3.33;2.37;;;5.40;65.80;;;;;;5045450;28;20236;-60
2024/03/10 04:44:36;;;;;;;5.37;2.87;;;5.40;65.90;;;;;;5046601;28;20226;-60
2024/03/10 04:47:03;;;;;;;6.23;2.77;;;5.40;66.00;;;;;;5046779;28;20932;-61
2024/03/10 04:49:28;;;;;;;2.90;2.43;;;5.30;66.10;;;;;;5044486;28;21254;-60
2024/03/10 04:51:54;;;;;;;3.80;2.20;;;5.30;66.10;;;;;;5045025;28;20416;-60
2024/03/10 04:54:20;;;;;;;6.60;2.10;;;5.30;66.20;;;;;;5045488;28;20187;-60
2024/03/10 04:56:46;;;;;;;2.37;2.03;;;5.30;66.30;;;;;;5042572;28;20239;-60
2024/03/10 04:59:11;;;;;;;2.20;1.57;;;5.20;66.20;;;;;;5045009;28;20284;-60
2024/03/10 05:01:38;;;;;;;2.30;1.77;;;5.20;65.90;;;;;;5043516;28;20441;-60
2024/03/10 05:04:05;;;;;;;2.10;1.90;;;5.20;65.80;;;;;;5048871;28;20187;-59
2024/03/10 05:06:30;;;;;;;4.80;1.97;;;5.20;65.70;;;;;;5045917;28;20453;-61
2024/03/10 05:08:58;;;;;;;3.43;2.30;;;5.20;65.70;;;;;;5046788;28;20448;-60
2024/03/10 05:11:23;;;;;;;2.47;2.27;;;5.20;65.80;;;;;;5045573;28;20720;-60
2024/03/10 05:13:49;;;;;;;5.30;1.90;;;5.20;65.70;;;;;;5043887;28;20460;-60
2024/03/10 05:16:16;;;;;;;1.97;1.83;;;5.20;65.60;;;;;;5042820;28;20171;-59
2024/03/10 05:18:42;;;;;;;2.30;1.70;;;5.20;65.70;;;;;;5045258;28;20701;-59
2024/03/10 05:21:08;;;;;;;7.00;2.10;;;5.20;65.90;;;;;;5041605;28;20413;-59
2024/03/10 05:23:34;;;;;;;2.00;1.73;;;5.20;65.80;;;;;;5045246;28;20523;-59
2024/03/10 05:26:00;;;;;;;5.83;2.00;;;5.20;65.80;;;;;;5023001;28;20488;-59
2024/03/10 05:28:25;;;;;;;2.67;1.80;;;5.20;65.80;;;;;;5041512;28;20481;-59
2024/03/10 05:30:52;;;;;;;3.63;1.63;;;5.20;65.60;;;;;;5046789;28;20325;-59
2024/03/10 05:33:18;;;;;;;2.77;1.90;;;5.10;65.50;;;;;;5044792;28;20193;-59
2024/03/10 05:35:44;;;;;;;1.80;1.70;;;5.10;65.40;;;;;;5042357;28;20433;-60
2024/03/10 05:38:09;;;;;;;2.80;1.80;;;5.20;65.40;;;;;;5046203;28;20191;-60
2024/03/10 05:40:35;;;;;;;2.60;1.60;;;5.20;65.30;;;;;;5044398;28;20417;-60
2024/03/10 05:43:00;;;;;;;2.80;2.00;;;5.20;65.10;;;;;;5045017;28;20764;-60
2024/03/10 05:45:26;;;;;;;2.80;2.07;;;5.30;64.90;;;;;;5047177;28;20183;-60
2024/03/10 05:47:52;;;;;;;1.97;1.70;;;5.30;64.60;;;;;;5046209;28;20191;-60
2024/03/10 05:50:17;;;;;;;4.50;2.50;;;5.40;64.50;;;;;;5039828;28;20782;-60
2024/03/10 05:52:44;;;;;;;3.07;1.80;;;5.40;64.50;;;;;;5037398;28;20179;-60
2024/03/10 05:55:09;;;;;;;4.73;2.67;;;5.40;64.40;;;;;;5047765;28;20262;-60
2024/03/10 05:57:35;;;;;;;4.03;2.17;;;5.40;63.90;;;;;;5045258;28;20854;-59
2024/03/10 06:00:01;;;;;;;2.90;2.07;;;5.40;63.80;;;;;;5042080;28;20289;-60
2024/03/10 06:02:28;;;;;;;4.43;2.17;;;5.50;63.90;;;;;;5045588;28;20225;-60
2024/03/10 06:04:54;;;;;;;2.23;1.83;;;5.50;63.50;;;;;;5041122;28;21045;-60
2024/03/10 06:07:19;;;;;;;4.40;2.37;;;5.60;63.30;;;;;;5039149;28;20414;-60
2024/03/10 06:09:45;;;;;;;2.00;1.80;;;5.60;63.20;;;;;;5041478;28;20195;-60
2024/03/10 06:12:12;;;;;;;5.00;2.20;;;5.60;63.10;;;;;;5044428;28;20194;-60
2024/03/10 06:14:38;;;;;;;3.70;2.17;;;5.60;63.10;;;;;;5026655;28;20377;-60
2024/03/10 06:17:05;;;;;;;2.63;2.10;;;5.70;63.10;;;;;;5041311;28;20424;-59
2024/03/10 06:27:43;;;;;;;1.97;1.77;;;5.60;63.20;;;;;;5038589;28;20459;-60
2024/03/10 06:30:10;;;;;;;4.03;1.97;;;5.60;63.20;;;;;;5043274;28;20836;-59
2024/03/10 06:32:37;;;;;;;2.03;1.83;;;5.60;63.10;;;;;;5043200;28;20179;-60
2024/03/10 06:35:03;;;;;;;1.83;1.70;;;5.60;63.20;;;;;;5040418;28;20434;-60
2024/03/10 06:37:29;;;;;;;2.53;1.83;;;5.60;63.30;;;;;;5044003;28;20416;-60
2024/03/10 06:39:54;;;;;;;2.30;1.90;;;5.60;63.20;;;;;;5041583;28;20449;-60
2024/03/10 06:42:22;;;;;;;4.00;2.20;;;5.60;63.10;;;;;;5044756;28;20784;-59
2024/03/10 06:44:49;;;;;;;3.80;2.00;;;5.60;62.80;;;;;;5039131;28;21881;-59
2024/03/10 06:47:14;;;;;;;3.20;2.47;;;5.60;62.80;;;;;;5017791;28;20434;-60
2024/03/10 06:49:40;;;;;;;3.50;2.77;;;5.60;62.70;;;;;;5042872;28;20449;-60
2024/03/10 06:52:06;;;;;;;3.53;2.57;;;5.70;62.80;;;;;;5042872;28;20171;-60
2024/03/10 06:54:32;;;;;;;2.37;2.17;;;5.70;62.40;;;;;;5042098;28;20266;-61
2024/03/10 06:56:57;;;;;;;2.67;2.47;;;5.70;62.30;;;;;;5041399;28;20517;-59
2024/03/10 06:59:25;;;;;;;4.20;2.73;;;5.80;62.10;;;;;;5038829;28;20743;-60
2024/03/10 07:01:52;;;;;;;3.70;2.83;;;5.80;62.00;;;;;;5043828;28;20179;-61
2024/03/10 07:04:18;;;;;;;4.40;3.10;;;5.90;61.70;;;;;;5042132;28;20552;-61
2024/03/10 07:06:46;;;;;;;3.47;3.13;;;6.00;61.30;;;;;;5043264;28;20489;-58
2024/03/10 07:09:11;;;;;;;2.60;2.20;;;6.00;61.10;;;;;;5041938;28;20638;-60
2024/03/10 07:11:39;;;;;;;4.60;2.70;;;6.20;60.30;;;;;;5041652;28;20426;-60
2024/03/10 07:14:04;;;;;;;5.90;2.30;;;6.30;59.80;;;;;;5042700;28;20174;-61
2024/03/10 07:16:31;;;;;;;4.60;2.50;;;6.40;59.60;;;;;;5046878;28;20417;-61
2024/03/10 07:18:57;;;;;;;2.43;2.10;;;6.50;59.30;;;;;;5046653;28;20198;-60
2024/03/10 07:21:23;;;;;;;2.80;2.50;;;6.60;59.30;;;;;;5042834;28;20516;-60
2024/03/10 07:23:49;;;;;;;2.33;2.00;;;6.70;59.10;;;;;;5047135;28;20908;-61
2024/03/10 07:26:14;;;;;;;2.73;2.23;;;6.70;58.60;;;;;;5046335;28;20183;-60
2024/03/10 07:28:40;;;;;;;2.80;2.37;;;6.80;58.30;;;;;;5041307;28;20316;-60
2024/03/10 07:31:06;;;;;;;2.67;2.40;;;6.90;58.40;;;;;;5049430;28;20171;-60
2024/03/10 07:33:34;;;;;;;2.30;2.10;;;6.90;58.20;;;;;;5044967;28;20650;-60
2024/03/10 07:36:00;;;;;;;2.30;2.10;;;7.00;58.20;;;;;;5045987;28;20753;-60
2024/03/10 07:38:27;;;;;;;2.10;1.97;;;7.00;58.10;;;;;;5042499;28;20971;-60
2024/03/10 07:40:53;;;;;;;2.70;2.27;;;7.10;58.10;;;;;;5048207;28;20413;-61
2024/03/10 07:43:20;;;;;;;3.63;2.33;;;7.10;57.90;;;;;;5044062;28;20486;-61
2024/03/10 07:45:45;;;;;;;1.97;1.83;;;7.20;58.30;;;;;;5049108;28;20425;-61
2024/03/10 07:48:12;;;;;;;2.20;2.00;;;7.20;57.80;;;;;;5044501;28;20858;-61
2024/03/10 07:50:37;;;;;;;2.77;1.90;;;7.30;57.20;;;;;;5043248;28;20662;-60
2024/03/10 07:53:03;;;;;;;1.83;1.73;;;7.30;56.50;;;;;;5047163;28;20460;-60
2024/03/10 07:55:30;;;;;;;3.63;2.10;;;7.40;55.80;;;;;;5046197;28;20210;-60
2024/03/10 07:57:59;;;;;;;3.40;1.73;;;7.50;55.80;;;;;;5046107;28;20444;-59
2024/03/10 08:00:26;;;;;;;2.70;2.40;;;7.50;56.10;;;;;;5025775;28;20496;-61
2024/03/10 08:02:53;;;;;;;3.20;2.33;;;7.60;55.90;;;;;;5043681;28;20433;-59
2024/03/10 08:05:19;;;;;;;8.00;2.87;;;7.60;56.10;;;;;;5040564;28;20425;-59
2024/03/10 08:07:48;;;;;;;3.07;2.77;;;7.60;56.10;;;;;;5045889;28;20932;-60
2024/03/10 08:10:14;;;;;;;5.23;2.97;;;7.70;56.00;;;;;;5048626;28;20563;-60
2024/03/10 08:12:43;;;;;;;8.53;3.10;;;7.70;56.20;;;;;;5043630;28;20440;-60
2024/03/10 08:15:11;;;;;;;4.67;3.27;;;7.80;56.40;;;;;;5031750;28;20420;-59
2024/03/10 08:17:37;;;;;;;4.63;3.10;;;7.80;56.30;;;;;;5043421;28;20764;-60
2024/03/10 08:20:06;;;;;;;4.03;2.80;;;7.90;56.30;;;;;;5026917;28;20425;-60
2024/03/10 08:22:36;;;;;;;5.97;3.60;;;7.90;55.50;;;;;;5042489;28;20513;-60
2024/03/10 08:25:03;;;;;;;5.70;3.10;;;8.00;54.20;;;;;;5042376;28;20467;-60
2024/03/10 08:27:29;;;;;;;4.20;2.80;;;8.10;53.70;;;;;;5045586;28;20943;-60
2024/03/10 08:29:55;;;;;;;1.97;1.77;;;8.20;53.30;;;;;;5035954;28;20980;-59
2024/03/10 08:32:21;;;;;;;2.37;1.90;;;8.40;52.60;;;;;;5044013;28;20412;-59
2024/03/10 08:34:46;;;;;;;2.10;1.80;;;8.60;52.50;;;;;;5028647;28;20183;-59
2024/03/10 08:37:13;;;;;;;2.60;2.40;;;8.80;51.80;;;;;;5025473;28;20183;-59
2024/03/10 08:39:39;;;;;;;2.30;2.10;;;8.90;51.60;;;;;;5043180;28;20191;-59
2024/03/10 08:42:06;;;;;;;2.67;2.03;;;9.10;51.90;;;;;;5045998;28;20578;-59
2024/03/10 08:44:32;;;;;;;3.80;2.00;;;9.20;51.80;;;;;;5026871;28;20535;-59
2024/03/10 08:46:58;;;;;;;3.43;1.93;;;9.30;51.50;;;;;;5042109;28;20453;-60
2024/03/10 08:49:24;;;;;;;2.40;2.13;;;9.30;51.30;;;;;;5024661;28;20449;-59
2024/03/10 08:51:49;;;;;;;2.40;1.80;;;9.30;51.30;;;;;;5043057;28;20405;-59
2024/03/10 08:54:15;;;;;;;2.70;1.90;;;9.40;51.60;;;;;;5043332;28;20183;-60
2024/03/10 08:56:41;;;;;;;2.83;2.10;;;9.40;51.50;;;;;;5046125;28;20261;-60
2024/03/10 08:59:13;;;;;;;2.00;1.80;;;9.40;51.20;;;;;;5046928;28;20222;-60
2024/03/10 09:01:39;;;;;;;1.77;1.67;;;9.40;51.00;;;;;;5019393;28;20544;-60
2024/03/10 09:04:07;;;;;;;2.40;2.10;;;9.40;50.90;;;;;;5043541;28;20488;-60
2024/03/10 09:06:34;;;;;;;2.53;2.27;;;9.40;51.30;;;;;;5039220;28;20439;-61
2024/03/10 09:09:00;;;;;;;6.90;2.33;;;9.50;50.90;;;;;;5043760;28;20434;-60
2024/03/10 09:11:26;;;;;;;2.90;2.10;;;9.50;51.10;;;;;;5041194;28;20421;-60
2024/03/10 09:13:52;;;;;;;2.20;1.87;;;9.50;51.00;;;;;;5035834;28;20437;-60
2024/03/10 09:16:18;;;;;;;2.53;1.80;;;9.60;50.70;;;;;;5041376;28;20262;-60
2024/03/10 09:18:44;;;;;;;2.10;1.90;;;9.60;50.50;;;;;;5041079;28;20884;-61
2024/03/10 09:21:09;;;;;;;4.47;2.23;;;9.70;51.00;;;;;;5037451;28;20260;-58
2024/03/10 09:23:37;;;;;;;2.90;2.60;;;9.70;51.20;;;;;;5036765;28;21188;-60
2024/03/10 09:26:03;;;;;;;3.77;2.37;;;9.70;51.10;;;;;;5016892;28;20183;-60
2024/03/10 09:28:28;;;;;;;2.83;2.50;;;9.80;51.10;;;;;;5022650;28;20511;-60
2024/03/10 09:30:57;;;;;;;2.87;2.20;;;9.80;51.20;;;;;;5039132;28;20186;-61
2024/03/10 09:33:23;;;;;;;3.37;2.27;;;9.80;50.90;;;;;;5040530;28;20199;-60
2024/03/10 09:35:53;;;;;;;3.33;2.47;;;9.80;51.20;;;;;;5037026;28;20841;-61
2024/03/10 09:38:19;;;;;;;2.97;2.30;;;9.90;51.10;;;;;;5036829;28;20547;-62
2024/03/10 09:40:48;;;;;;;2.10;1.90;;;9.90;51.20;;;;;;5033447;28;20425;-60
2024/03/10 09:43:15;;;;;;;2.10;1.90;;;9.90;50.60;;;;;;5039366;28;20195;-56
2024/03/10 09:45:46;;;;;;;1.80;1.70;;;10.00;49.40;;;;;;5039691;28;20622;-56
2024/03/10 09:48:13;;;;;;;2.20;1.70;;;10.00;49.00;;;;;;5037830;28;20468;-55
2024/03/10 09:50:48;;;;;;;2.30;1.90;;;10.00;49.40;;;;;;5039682;28;20568;-59
2024/03/10 09:53:14;;;;;;;1.63;1.53;;;10.10;49.50;;;;;;5039957;28;20437;-56
2024/03/10 09:55:41;;;;;;;5.37;3.30;;;10.20;49.30;;;;;;5038822;28;21047;-60
2024/03/10 09:58:15;;;;;;;48.33;19.37;;;10.20;50.30;;;;;;5037901;28;21147;-62
2024/03/10 10:00:47;;;;;;;18.27;7.13;;;10.30;50.80;;;;;;5039316;28;20437;-61
2024/03/10 10:03:14;;;;;;;12.60;5.73;;;10.30;50.50;;;;;;5036334;28;21066;-60
2024/03/10 10:05:46;;;;;;;9.20;4.10;;;10.40;50.30;;;;;;5038138;28;20480;-60
2024/03/10 10:08:12;;;;;;;2.90;2.60;;;10.50;50.70;;;;;;5038643;28;20498;-58
2024/03/10 10:10:47;;;;;;;5.07;3.07;;;10.50;50.20;;;;;;5019571;28;20429;-61
2024/03/10 10:13:23;;;;;;;4.60;2.40;;;10.60;49.70;;;;;;5035340;28;20428;-60
2024/03/10 10:15:49;;;;;;;2.73;2.50;;;10.60;49.30;;;;;;5034955;28;21038;-61
2024/03/10 10:18:16;;;;;;;3.10;2.30;;;10.70;49.50;;;;;;5035384;28;20568;-62
2024/03/10 10:20:53;;;;;;;2.37;2.00;;;10.70;49.20;;;;;;5036603;28;20194;-62
2024/03/10 10:23:23;;;;;;;3.03;2.03;;;10.90;49.40;;;;;;5017666;28;20535;-63
2024/03/10 10:26:12;;;;;;;2.57;1.90;;;10.90;49.60;;;;;;5035362;28;20517;-61
2024/03/10 10:28:44;;;;;;;5.30;2.77;;;11.10;49.20;;;;;;5036392;28;20492;-64
2024/03/10 10:31:18;;;;;;;2.23;1.90;;;11.30;48.90;;;;;;5034200;28;20440;-63
2024/03/10 10:33:47;;;;;;;2.03;1.67;;;11.50;48.60;;;;;;5037330;28;20451;-63
2024/03/10 10:36:14;;;;;;;2.10;1.57;;;11.70;48.60;;;;;;5037043;28;20465;-62
2024/03/10 10:38:44;;;;;;;2.50;1.80;;;11.80;48.00;;;;;;5037798;28;20456;-63
2024/03/10 10:41:10;;;;;;;1.90;1.53;;;12.00;47.70;;;;;;5036764;28;20434;-64
2024/03/10 10:43:39;;;;;;;4.43;1.57;;;12.20;47.10;;;;;;5034051;28;20521;-61
2024/03/10 10:46:12;;;;;;;2.23;1.80;;;12.30;46.60;;;;;;5036369;28;20931;-60
2024/03/10 10:48:41;;;;;;;2.67;1.90;;;12.30;46.20;;;;;;5040309;28;20939;-64
2024/03/10 10:51:08;;;;;;;3.40;1.60;;;12.50;46.90;;;;;;5033904;28;20429;-60
2024/03/10 10:53:38;;;;;;;1.53;1.37;;;12.80;47.30;;;;;;5041029;28;20513;-60
2024/03/10 10:56:04;;;;;;;2.53;1.70;;;13.00;46.50;;;;;;5035038;28;20483;-60
2024/03/10 10:58:33;;;;;;;4.20;1.70;;;13.20;46.20;;;;;;5041130;28;20446;-59
2024/03/10 11:01:07;;;;;;;1.70;1.60;;;13.40;46.20;;;;;;5043324;28;20525;-61
2024/03/10 11:03:36;;;;;;;1.60;1.50;;;13.60;44.90;;;;;;5025461;28;20472;-63
2024/03/10 11:06:01;;;;;;;3.90;1.83;;;13.70;44.60;;;;;;5042852;28;20421;-61
2024/03/10 11:08:31;;;;;;;1.67;1.50;;;13.70;44.70;;;;;;5039610;28;20499;-61
2024/03/10 11:10:57;;;;;;;1.53;1.43;;;13.70;44.40;;;;;;5026757;28;20175;-62
2024/03/10 11:13:23;;;;;;;2.00;1.53;;;13.60;44.50;;;;;;5044533;28;20429;-60
2024/03/10 11:16:13;;;;;;;1.90;1.80;;;13.60;44.00;;;;;;5037301;28;20270;-60
2024/03/10 11:18:43;;;;;;;1.83;1.40;;;13.50;44.40;;;;;;5038353;28;20516;-60
2024/03/10 11:21:22;;;;;;;2.03;1.70;;;13.50;44.90;;;;;;5039886;28;20464;-60
2024/03/10 11:23:50;;;;;;;2.10;1.30;;;13.50;45.00;;;;;;5040413;28;20452;-62
2024/03/10 11:26:17;;;;;;;2.17;1.53;;;13.50;44.20;;;;;;5038253;28;20456;-61
2024/03/10 11:28:54;;;;;;;1.37;1.27;;;13.50;44.30;;;;;;5040496;28;20460;-61
2024/03/10 11:31:23;;;;;;;1.40;1.30;;;13.40;44.90;;;;;;5034836;28;20437;-62
2024/03/10 11:33:52;;;;;;;1.53;1.43;;;13.40;44.80;;;;;;5041589;28;20436;-60
2024/03/10 11:36:20;;;;;;;1.33;1.20;;;13.40;45.00;;;;;;5039738;28;20445;-61
2024/03/10 11:38:46;;;;;;;1.40;1.30;;;13.40;44.80;;;;;;5039774;28;20468;-60
2024/03/10 11:41:12;;;;;;;1.93;1.50;;;13.30;45.20;;;;;;5041305;28;20430;-62
2024/03/10 11:43:38;;;;;;;2.10;1.67;;;13.20;45.20;;;;;;5022431;28;20207;-61
2024/03/10 11:46:20;;;;;;;2.40;1.50;;;13.20;45.50;;;;;;5039579;28;20417;-60
2024/03/10 11:48:52;;;;;;;2.40;1.43;;;13.20;45.20;;;;;;5032136;28;20452;-60
2024/03/10 11:51:19;;;;;;;2.53;1.50;;;13.10;45.10;;;;;;5019682;28;20982;-63
2024/03/10 11:53:45;;;;;;;1.70;1.10;;;13.10;44.90;;;;;;5036974;28;20433;-61
2024/03/10 11:56:14;;;;;;;1.80;1.40;;;13.00;45.10;;;;;;5023903;28;20874;-58
2024/03/10 11:58:41;;;;;;;4.57;2.03;;;13.00;45.70;;;;;;5038871;28;20203;-57
2024/03/10 12:01:10;;;;;;;2.00;1.80;;;13.00;47.50;;;;;;5038834;28;20426;-59
2024/03/10 12:03:35;;;;;;;3.07;1.70;;;13.00;48.50;;;;;;5039456;28;20473;-57
2024/03/10 12:06:05;;;;;;;1.63;1.30;;;13.00;47.70;;;;;;5039939;28;20437;-59
2024/03/10 12:08:32;;;;;;;1.40;1.30;;;13.00;47.50;;;;;;5024330;28;20206;-60
2024/03/10 12:10:59;;;;;;;1.60;1.30;;;12.90;47.60;;;;;;5042188;28;21120;-58
2024/03/10 12:13:24;;;;;;;1.73;1.63;;;12.80;47.50;;;;;;5039134;28;20445;-61
2024/03/10 12:15:51;;;;;;;1.47;1.37;;;12.80;46.80;;;;;;5040895;28;20514;-59
2024/03/10 12:18:18;;;;;;;3.83;1.50;;;12.70;46.40;;;;;;5037827;28;20198;-59
2024/03/10 12:20:44;;;;;;;2.50;1.67;;;12.60;46.10;;;;;;5039970;28;20442;-62
2024/03/10 12:23:12;;;;;;;6.10;1.60;;;12.60;45.40;;;;;;5041350;28;20519;-59
2024/03/10 12:25:45;;;;;;;1.47;1.37;;;12.60;45.20;;;;;;5041525;28;20982;-60
2024/03/10 12:28:11;;;;;;;1.90;1.43;;;12.50;45.30;;;;;;5037067;28;20561;-61
2024/03/10 12:30:37;;;;;;;2.70;2.13;;;12.50;45.30;;;;;;5041323;28;20409;-60
2024/03/10 12:33:08;;;;;;;3.70;3.20;;;12.40;45.50;;;;;;5040971;28;20483;-59
2024/03/10 12:35:34;;;;;;;4.60;2.60;;;12.40;45.80;;;;;;5040901;28;20225;-60
2024/03/10 12:38:00;;;;;;;3.90;3.20;;;12.40;46.00;;;;;;5040939;28;20437;-60
2024/03/10 12:40:26;;;;;;;2.40;2.20;;;12.30;46.90;;;;;;5043282;28;20414;-59
2024/03/10 12:42:52;;;;;;;3.57;3.20;;;12.30;48.00;;;;;;5040456;28;20430;-61
2024/03/10 12:45:18;;;;;;;5.17;3.03;;;12.30;48.60;;;;;;5037827;28;20226;-61
2024/03/10 12:47:44;;;;;;;3.57;2.77;;;12.30;49.30;;;;;;5041671;28;20180;-61
2024/03/10 12:50:10;;;;;;;6.30;2.60;;;12.20;49.50;;;;;;5026067;28;20422;-60
2024/03/10 12:52:36;;;;;;;6.83;3.20;;;12.20;50.00;;;;;;5041826;28;20421;-59
2024/03/10 12:55:09;;;;;;;4.60;3.70;;;12.10;50.40;;;;;;5041668;28;20475;-62
2024/03/10 12:57:41;;;;;;;7.00;3.30;;;12.10;50.80;;;;;;5039298;28;20215;-61
2024/03/10 13:02:44;;;;;;;5.40;3.60;;;12.00;51.60;;;;;;5038541;28;21328;-61
2024/03/10 13:05:10;;;;;;;3.43;2.70;;;11.90;51.90;;;;;;5039530;28;20449;-61
2024/03/10 13:07:36;;;;;;;3.53;3.20;;;11.80;52.00;;;;;;5040592;28;20444;-59
2024/03/10 13:10:03;;;;;;;7.40;3.43;;;11.70;52.10;;;;;;5039661;28;20198;-60
2024/03/10 13:12:28;;;;;;;5.53;3.70;;;11.60;51.90;;;;;;5044213;28;20500;-61
2024/03/10 13:14:54;;;;;;;4.50;3.20;;;11.50;52.10;;;;;;5019976;28;21266;-60
2024/03/10 13:17:19;;;;;;;5.10;3.20;;;11.50;52.60;;;;;;5040051;28;20262;-59